AirNav   Everest Fuels
 
 1067 users online  

38D Salem Airpark Inc
Salem, Ohio, USA

GOING TO SALEM?


FAA INFORMATION EFFECTIVE 30 JANUARY 2020

Location

FAA Identifier: 38D
Lat/Long: 40-56-53.1000N 080-51-43.5000W
40-56.885000N 080-51.725000W
40.9480833,-80.8620833
(estimated)
Elevation: 1161.7 ft. / 354.1 m (surveyed)
Variation: 07W (1985)
From city: 3 miles N of SALEM, OH
Time zone: UTC -5 (UTC -4 during Daylight Saving Time)
Zip code: 44460

Airport Operations

Airport use: Open to the public
Activation date: 10/1952
Control tower: no
ARTCC: CLEVELAND CENTER
FSS: CLEVELAND FLIGHT SERVICE STATION
NOTAMs facility: CLE (NOTAM-D service available)
Attendance: UNATNDD
Wind indicator: yes
Segmented circle: no
Lights: ACTVT NSTD LIRL RWY 10L/28R - CTAF
Landing fee: yes

Airport Communications

CTAF/UNICOM: 122.7
CLEVELAND APPROACH: 125.5
CLEVELAND DEPARTURE: 125.5
  • APCH/DEP SVC PRVDD BY CLEVELAND APCH (CLE) 0600-0000. APCH/DEP SVC PRVDD BY CLEVELAND ARTCC (ZOB) ON FREQS 120.775/298.95 (CHARDON RCAG) 0000-0600.

Nearby radio navigation aids

VOR radial/distance  VOR name  Freq  Var
ACOr126/18.1AKRON VOR/DME114.4004W
YNGr205/24.5YOUNGSTOWN VORTAC109.0005W
BSVr068/28.7BRIGGS VOR/DME112.4004W
EWCr292/30.4ELLWOOD CITY VOR/DME115.8008W
CXRr163/36.7CHARDON VOR/DME112.7005W

 
NDB name  Hdg/Dist  Freq  Var  ID
CASTLE266/20.727209WUCP ..- -.-. .--.

Airport Services

Fuel available: 100LL
Parking: hangars and tiedowns
Airframe service: NONE
Powerplant service: NONE
Bottled oxygen: NONE
Bulk oxygen: NONE

Runway Information

Runway 10L/28R

Dimensions: 3404 x 50 ft. / 1038 x 15 m
Surface: asphalt, in fair condition
Runway edge lights: non-standard
NSTD; RWY 10L LGTD 238 FT FM RWY END; RWY 28R LGTD 330 FT FM RWY END WITH 360 DEG GREEN LGTS.
Runway edge markings: RWY 10L/28R: MARKING NON-STANDARD
RUNWAY 10L  RUNWAY 28R
Latitude: 40-56.893863N40-56.893103N
Longitude: 080-52.131392W080-51.392095W
Elevation: 1151.9 ft.1161.7 ft.
Traffic pattern: leftleft
Runway heading: 097 magnetic, 090 true277 magnetic, 270 true
Displaced threshold: no266 ft.
Markings: NSTD, in fair conditionNSTD, in fair condition
Touchdown point: yes, no lightsyes, no lights
Obstructions: 30 ft. trees, 455 ft. from runway, 175 ft. left of centerline, 8:1 slope to clear
RWY 10L: +5FT BRUSH 175FT FM RWY 10L 60FT L/CL/R, OBST CLN SLOPE 0:1 TO THLD RWY 10L
26 ft. hill, 615 ft. from runway, 160 ft. both sides of centerline, 16:1 slope to clear
RWY 28R: +18FT ROAD 80FT FM RWY 28R, 125FT L/CL/R, 19:1 OBST CLN SLOPE TO DTHLD RWY 28R

Runway 10R/28L

Dimensions: 2593 x 85 ft. / 790 x 26 m
Surface: turf, in good condition
RWY 10R/28L (TURF): CTC APT FOR RWY COND PRIOR TO USE. WHEN WET, MIDDLE CONNECTORS AT PAVED RWY EDGE VERY SOFT. RECOMMEND USING RWY END CONNECTORS, IF NOT FAMILIAR.
Runway edge markings: RWY 10R/28L (TURF): RWY ENDS NOT MKD; DITCH MKD WITH YELLOW CONES ON NORTH SIDE.
RUNWAY 10R  RUNWAY 28L
Latitude: 40-56.873805N40-56.870317N
Longitude: 080-51.959913W080-51.396827W
Elevation: 1150.2 ft.1161.7 ft.
Traffic pattern: leftleft
Runway heading: 097 magnetic, 090 true277 magnetic, 270 true
Obstructions: 85 ft. trees, 15 ft. from runway, 45 ft. right of centerline15 ft. road, 60 ft. left of centerline

Airport Ownership and Management from official FAA records

Ownership: Privately-owned
Owner: MICHAEL PIDGEON
11718 SALEM-WARREN ROAD
SALEM, OH 44460
Phone 330-332-4400
Manager: MICHAEL PIDGEON
11718 SALEM-WARREN ROAD
SALEM, OH 44460
Phone (330) 402-1136
ADNL CTC: (330) 402-1136; SALEMAIRPARK@YAHOO.COM

Airport Operational Statistics

Aircraft based on the field: 66
Single engine airplanes: 66
    
Aircraft operations: avg 31/day *
97% local general aviation
3% transient general aviation
<1% air taxi
* for 12-month period ending 26 August 2017

Additional Remarks

DRAG STRIP 3500 FT SE OF ARPT.
FOR APCH/DEP SVC WHEN CLEVELAND APCH UNAVBL, CTC CLEVELAND ARTCC AT 440-774-0223.
DEER, BIRDS & OTHER WILDLIFE ON & INVOF ARPT.
FOR CD CTC CLEVELAND APCH AT 216-352-2323. FOR CD WHEN CLEVELAND APCH UNAVBL, CTC CLEVELAND ARTCC AT 440-774-0490.

Instrument Procedures

NOTE: All procedures below are presented as PDF files. If you need a reader for these files, you should download the free Adobe Reader.

NOT FOR NAVIGATION. Please procure official charts for flight.
FAA instrument procedures published for use from 30 January 2020 at 0901Z to 27 Feburary 2020 at 0900Z.

 
IAPs - Instrument Approach Procedures
VOR OR GPS-A   download (164KB)
NOTE: Special Take-Off Minimums/Departure Procedures apply   download (276KB)

Other nearby airports with instrument procedures:

3G6 - Tri-City Airport (7 nm W)
4G4 - Youngstown Elser Metro Airport (8 nm E)
02G - Columbiana County Airport (19 nm SE)
KYNG - Youngstown-Warren Regional Airport (21 nm NE)
KUCP - New Castle Municipal Airport (21 nm E)
 
Loc | Ops | Rwys | IFR | FBO | Links
Com | Nav | Svcs | Stats | Notes
Area around 38D (Salem Airpark Inc)
 
Road maps at: MapQuest Bing Google
 
Aerial photo
WARNING: Photo may not be current or correct
Aerial photo of 38D (Salem Airpark Inc)
Photo by Brad Smith
Photo taken 04-May-2008

Do you have a better or more recent aerial photo of Salem Airpark Inc that you would like to share? If so, please send us your photo.

 
Sectional chart

 
Airport distance calculator
Flying to Salem Airpark Inc? Find the distance to fly.

From to 38D

Sunrise and sunset
Times for 22-Feb-2020
 Local
(UTC-5)
 Zulu
(UTC)
Morning civil twilight06:4111:41
Sunrise07:0912:09
Sunset18:0523:05
Evening civil twilight18:3323:33

Current date and time
Zulu (UTC)  22-Feb-2020 21:55:37
Local (UTC-5)  22-Feb-2020 16:55:37
 
METAR
KYNG 
20nm NE 
222051Z 22012KT 10SM CLR 07/M10 A3021 RMK AO2 SLP242 T00721100 56015
KUCP 
21nm E 
222056Z AUTO 26011KT 10SM CLR 07/M11 A3023 RMK AO2 SLP263 6//// T00721111 56016 PNO $
KPOV 
24nm NW 
222135Z AUTO 24009G14KT 10SM CLR 07/M15 A3021 RMK AO2 T00721148 PWINO
KBVI 
24nm SE 
222135Z AUTO 25009G17KT 10SM CLR 08/M13 A3023 RMK AO2 T00831132
KCAK 
27nm W 
222051Z 25015G20KT 10SM CLR 08/M11 A3023 RMK AO2 SLP247 T00831111 56015
KAKR 
28nm W 
222054Z AUTO 22012KT 10SM CLR 09/M11 A3022 RMK AO2 SLP240 T00891106 56015 $
KPJC 
33nm E 
222136Z AUTO 23005KT 10SM CLR 08/M13 A3023 RMK AO2
KPIT 
38nm SE 
222051Z 22012G19KT 10SM CLR 07/M14 A3023 RMK AO2 SLP257 T00721139 56020
KPHD 
38nm SW 
222053Z AUTO 23007G15KT 190V260 10SM CLR 08/M12 A3026 RMK AO2 SLP254 T00831122 56020
TAF
KYNG 
20nm NE 
221120Z 2212/2312 22011KT P6SM SKC FM221500 22012G19KT P6SM SKC FM230000 21007KT P6SM FEW250
KBVI 
24nm SE 
221720Z 2218/2318 24010G16KT P6SM SKC FM222200 21004KT P6SM SKC
NOTAMs
Click for the latest NOTAMs
NOTAMs are issued by the DoD/FAA and will open in a separate window not controlled by AirNav.

 

 
 

FBO, Fuel Providers, and Aircraft Ground Support

  
 Business Name 
 
 Contact 
 
 Services / Description 
 
Fuel Prices
 
Comments
  
Salem Air Park 330-332-4400
no information available

If you are affiliated with Salem Air Park and would like to show here your services, contact info, web link, logo, and more, click here
100LL
AS $5.16 
 Updated 12-Feb-2020
 
   1 read write
AS=Assisted/Self Service
Update Fuel Prices
 

Would you like to see your business listed on this page?

 If your business provides an interesting product or service to pilots, flight crews, aircraft, or users of the Salem Airpark Inc, you should consider listing it here.  To start the listing process, click on the button below
 
Add a business
 

Other Pages about Salem Airpark Inc

Update a link
 
Copyright © AirNav, LLC. All rights reserved. Privacy Policy  Contact